createdAt,value
2022-09-12T00:00:50.775Z,100.00
2022-09-12T00:03:17.336Z,100.00
2022-09-12T00:05:45.543Z,100.00
2022-09-12T00:08:13.230Z,100.00
2022-09-12T00:10:42.175Z,100.00
2022-09-12T00:13:09.422Z,100.00
2022-09-12T00:15:41.383Z,100.00
2022-09-12T00:18:10.013Z,100.00
2022-09-12T00:20:40.951Z,100.00
2022-09-12T00:23:07.359Z,100.00
2022-09-12T00:25:33.808Z,100.00
2022-09-12T00:28:00.279Z,100.00
2022-09-12T00:30:27.906Z,100.00
2022-09-12T00:32:54.781Z,100.00
2022-09-12T00:35:21.226Z,100.00
2022-09-12T00:37:47.669Z,100.00
2022-09-12T00:40:14.410Z,100.00
2022-09-12T00:42:40.903Z,100.00
2022-09-12T00:45:23.122Z,100.00
2022-09-12T00:47:49.715Z,100.00
2022-09-12T00:50:17.773Z,100.00
2022-09-12T00:53:02.963Z,100.00
2022-09-12T00:55:37.701Z,100.00
2022-09-12T00:58:13.638Z,100.00
2022-09-12T01:00:40.266Z,100.00
2022-09-12T01:03:15.921Z,100.00
2022-09-12T01:06:07.302Z,100.00
2022-09-12T01:08:37.359Z,100.00
2022-09-12T01:11:05.852Z,100.00
2022-09-12T01:13:35.167Z,100.00
2022-09-12T01:16:04.750Z,100.00
2022-09-12T01:18:45.465Z,100.00
2022-09-12T01:21:19.346Z,100.00
2022-09-12T01:24:07.931Z,100.00
2022-09-12T01:27:11.612Z,100.00
2022-09-12T01:30:12.321Z,100.00
2022-09-12T01:32:49.338Z,100.00
2022-09-12T01:35:22.904Z,100.00
2022-09-12T01:37:58.193Z,100.00
2022-09-12T01:40:45.113Z,100.00
2022-09-12T01:43:35.409Z,100.00
2022-09-12T01:46:02.434Z,100.00
2022-09-12T01:48:40.585Z,100.00
2022-09-12T01:51:20.141Z,100.00
2022-09-12T01:53:55.743Z,100.00
2022-09-12T01:56:26.499Z,100.00
2022-09-12T01:58:59.694Z,100.00
2022-09-12T02:01:30.690Z,100.00
2022-09-12T02:04:11.679Z,100.00
2022-09-12T02:07:05.947Z,100.00
2022-09-12T02:09:37.818Z,100.00
2022-09-12T02:12:08.023Z,100.00
2022-09-12T02:14:40.262Z,100.00
2022-09-12T02:17:13.463Z,100.00
2022-09-12T02:19:47.298Z,100.00
2022-09-12T02:22:17.273Z,100.00
2022-09-12T02:24:47.971Z,100.00
2022-09-12T02:27:18.182Z,100.00
2022-09-12T02:29:45.634Z,100.00
2022-09-12T02:32:40.851Z,100.00
2022-09-12T02:35:18.279Z,100.00
2022-09-12T02:38:04.965Z,100.00
2022-09-12T02:40:33.252Z,100.00
2022-09-12T02:43:00.768Z,100.00
2022-09-12T02:45:27.597Z,100.00
2022-09-12T02:48:08.179Z,100.00
2022-09-12T02:50:35.214Z,100.00
2022-09-12T02:53:04.961Z,100.00
2022-09-12T02:55:33.125Z,100.00
2022-09-12T02:58:02.822Z,100.00
2022-09-12T03:00:45.350Z,100.00
2022-09-12T03:03:42.696Z,100.00
2022-09-12T03:06:21.579Z,100.00
2022-09-12T03:09:11.089Z,100.00
2022-09-12T03:11:49.854Z,100.00
2022-09-12T03:14:49.962Z,100.00
2022-09-12T03:17:19.391Z,100.00
2022-09-12T03:20:15.074Z,100.00
2022-09-12T03:23:04.173Z,100.00
2022-09-12T03:25:40.899Z,100.00
2022-09-12T03:28:15.471Z,100.00
2022-09-12T03:30:47.492Z,100.00
2022-09-12T03:33:19.605Z,100.00
2022-09-12T03:35:47.404Z,100.00
2022-09-12T03:38:14.650Z,100.00
2022-09-12T03:40:41.378Z,100.00
2022-09-12T03:43:09.561Z,100.00
2022-09-12T03:45:37.095Z,100.00
2022-09-12T03:48:05.783Z,100.00
2022-09-12T03:50:32.500Z,100.00
2022-09-12T03:53:00.001Z,100.00
2022-09-12T03:55:26.710Z,100.00
2022-09-12T03:57:54.500Z,100.00
2022-09-12T04:00:21.457Z,100.00
2022-09-12T04:02:47.887Z,100.00
2022-09-12T04:05:14.575Z,100.00
2022-09-12T04:07:41.061Z,100.00
2022-09-12T04:10:09.454Z,100.00
2022-09-12T04:12:36.131Z,100.00
2022-09-12T04:15:02.947Z,100.00
2022-09-12T04:17:29.395Z,100.00
2022-09-12T04:19:55.872Z,100.00
2022-09-12T04:22:22.299Z,100.00
2022-09-12T04:24:48.742Z,100.00
2022-09-12T04:27:15.176Z,100.00
2022-09-12T04:29:41.631Z,100.00
2022-09-12T04:32:08.068Z,100.00
2022-09-12T04:34:34.502Z,100.00
2022-09-12T04:37:01.065Z,100.00
2022-09-12T04:39:27.523Z,100.00
2022-09-12T04:41:54.334Z,100.00
2022-09-12T04:44:20.798Z,100.00
2022-09-12T04:46:47.549Z,100.00
2022-09-12T04:49:16.350Z,100.00
2022-09-12T04:51:43.138Z,100.00
2022-09-12T04:54:16.451Z,100.00
2022-09-12T04:56:45.242Z,100.00
2022-09-12T04:59:13.236Z,100.00
2022-09-12T05:01:40.128Z,100.00
2022-09-12T05:04:06.881Z,100.00
2022-09-12T05:06:36.170Z,100.00
2022-09-12T05:09:05.260Z,100.00
2022-09-12T05:12:02.221Z,100.00
2022-09-12T05:14:21.598Z,100.00
2022-09-12T05:16:49.638Z,100.00
2022-09-12T05:19:16.874Z,100.00
2022-09-12T05:21:43.318Z,100.00
2022-09-12T05:24:11.182Z,100.00
2022-09-12T05:26:37.639Z,100.00
2022-09-12T05:29:04.755Z,100.00
2022-09-12T05:31:31.225Z,100.00
2022-09-12T05:33:57.713Z,100.00
2022-09-12T05:36:29.278Z,100.00
2022-09-12T05:38:56.732Z,100.00
2022-09-12T05:41:25.766Z,100.00
2022-09-12T05:43:57.603Z,100.00
2022-09-12T05:46:27.620Z,100.00
2022-09-12T05:48:56.539Z,100.00
2022-09-12T05:51:26.887Z,100.00
2022-09-12T05:53:58.106Z,100.00
2022-09-12T05:56:27.986Z,100.00
2022-09-12T05:59:10.637Z,100.00
2022-09-12T06:01:37.300Z,100.00
2022-09-12T06:04:06.414Z,100.00
2022-09-12T06:06:37.099Z,100.00
2022-09-12T06:09:05.734Z,100.00
2022-09-12T06:11:34.163Z,100.00
2022-09-12T06:14:01.288Z,100.00
2022-09-12T06:16:30.021Z,100.00
2022-09-12T06:18:59.457Z,100.00
2022-09-12T06:21:27.136Z,100.00
2022-09-12T06:23:54.539Z,100.00
2022-09-12T06:26:23.525Z,100.00
2022-09-12T06:28:50.582Z,100.00
2022-09-12T06:31:22.972Z,100.00
2022-09-12T06:33:52.034Z,100.00
2022-09-12T06:36:24.293Z,100.00
2022-09-12T06:38:56.281Z,100.00
2022-09-12T06:41:24.146Z,100.00
2022-09-12T06:43:50.964Z,100.00
2022-09-12T06:46:17.656Z,100.00
2022-09-12T06:48:44.323Z,100.00
2022-09-12T06:51:13.418Z,100.00
2022-09-12T06:53:40.043Z,100.00
2022-09-12T06:56:10.917Z,100.00
2022-09-12T06:58:37.439Z,100.00
2022-09-12T07:01:06.721Z,100.00
2022-09-12T07:03:36.313Z,100.00
2022-09-12T07:06:04.504Z,99.60
2022-09-12T07:08:31.661Z,99.39
2022-09-12T07:11:01.061Z,98.76
2022-09-12T07:13:27.535Z,98.32
2022-09-12T07:15:53.996Z,96.86
2022-09-12T07:18:21.055Z,96.56
2022-09-12T07:20:47.592Z,97.03
2022-09-12T07:23:14.134Z,97.77
2022-09-12T07:25:40.772Z,98.21
2022-09-12T07:28:07.319Z,97.69
2022-09-12T07:30:33.864Z,97.09
2022-09-12T07:33:00.415Z,97.95
2022-09-12T07:35:26.962Z,97.54
2022-09-12T07:37:53.441Z,98.01
2022-09-12T07:40:20.035Z,98.01
2022-09-12T07:42:47.802Z,95.67
2022-09-12T07:45:14.308Z,94.97
2022-09-12T07:47:41.069Z,94.66
2022-09-12T07:50:07.946Z,95.75
2022-09-12T07:52:34.423Z,93.54
2022-09-12T07:55:00.931Z,94.45
2022-09-12T07:57:27.381Z,92.69
2022-09-12T07:59:53.954Z,92.02
2022-09-12T08:02:20.570Z,91.44
2022-09-12T08:04:48.365Z,90.25
2022-09-12T08:07:15.433Z,89.68
2022-09-12T08:09:41.917Z,89.58
2022-09-12T08:12:08.594Z,89.35
2022-09-12T08:14:35.049Z,89.80
2022-09-12T08:17:01.506Z,89.13
2022-09-12T08:19:28.070Z,88.48
2022-09-12T08:21:54.536Z,87.38
2022-09-12T08:24:21.027Z,87.02
2022-09-12T08:26:47.626Z,88.29
2022-09-12T08:29:14.551Z,87.75
2022-09-12T08:31:42.454Z,85.86
2022-09-12T08:34:09.474Z,84.97
2022-09-12T08:36:36.329Z,81.79
2022-09-12T08:39:07.559Z,78.85
2022-09-12T08:41:44.493Z,77.83
2022-09-12T08:44:11.529Z,76.85
2022-09-12T08:47:08.908Z,77.31
2022-09-12T08:49:56.991Z,78.96
2022-09-12T08:52:41.877Z,79.10
2022-09-12T08:55:24.832Z,78.69
2022-09-12T08:57:52.335Z,72.96
2022-09-12T09:00:19.915Z,72.25
2022-09-12T09:03:01.723Z,68.54
2022-09-12T09:05:37.336Z,62.51
2022-09-12T09:08:15.995Z,60.96
2022-09-12T09:11:30.547Z,58.72
2022-09-12T09:14:32.656Z,62.98
2022-09-12T09:17:00.715Z,62.38
2022-09-12T09:19:33.027Z,61.37
2022-09-12T09:22:14.304Z,61.65
2022-09-12T09:24:52.733Z,55.09
2022-09-12T09:27:40.982Z,55.68
2022-09-12T09:30:41.133Z,57.03
2022-09-12T09:33:20.390Z,51.52
2022-09-12T09:35:52.223Z,52.01
2022-09-12T09:39:00.778Z,52.96
2022-09-12T09:41:54.651Z,52.25
2022-09-12T09:44:21.274Z,55.01
2022-09-12T09:46:54.170Z,51.58
2022-09-12T09:49:21.876Z,50.77
2022-09-12T09:51:48.877Z,51.69
2022-09-12T09:54:38.526Z,53.61
2022-09-12T09:57:05.175Z,56.81
2022-09-12T09:59:33.856Z,50.28
2022-09-12T10:02:13.067Z,50.10
2022-09-12T10:04:41.863Z,54.46
2022-09-12T10:07:18.816Z,48.60
2022-09-12T10:10:05.582Z,55.14
2022-09-12T10:12:32.130Z,51.66
2022-09-12T10:15:00.717Z,54.23
2022-09-12T10:17:39.603Z,52.20
2022-09-12T10:20:32.418Z,50.74
2022-09-12T10:23:37.615Z,52.58
2022-09-12T10:26:10.492Z,48.44
2022-09-12T10:28:43.682Z,51.95
2022-09-12T10:31:15.681Z,52.06
2022-09-12T10:33:47.352Z,48.62
2022-09-12T10:36:15.616Z,50.72
2022-09-12T10:38:53.490Z,45.02
2022-09-12T10:41:21.922Z,46.41
2022-09-12T10:43:48.906Z,44.11
2022-09-12T10:46:18.459Z,44.42
2022-09-12T10:49:12.379Z,49.98
2022-09-12T10:51:38.891Z,43.10
2022-09-12T10:54:09.054Z,43.67
2022-09-12T10:56:42.279Z,45.10
2022-09-12T10:59:56.515Z,43.30
2022-09-12T11:02:38.895Z,43.46
2022-09-12T11:05:22.712Z,43.40
2022-09-12T11:08:09.756Z,44.47
2022-09-12T11:10:45.365Z,44.25
2022-09-12T11:13:23.717Z,43.87
2022-09-12T11:16:28.368Z,43.28
2022-09-12T11:19:03.822Z,43.13
2022-09-12T11:21:52.251Z,41.27
2022-09-12T11:24:34.046Z,43.56
2022-09-12T11:27:13.071Z,41.90
2022-09-12T11:29:52.714Z,42.06
2022-09-12T11:32:43.257Z,45.58
2022-09-12T11:35:17.577Z,44.25
2022-09-12T11:37:56.017Z,45.02
2022-09-12T11:40:44.950Z,42.05
2022-09-12T11:43:29.095Z,44.75
2022-09-12T11:46:01.433Z,48.13
2022-09-12T11:48:49.022Z,49.35
2022-09-12T11:51:24.553Z,48.98
2022-09-12T11:54:20.379Z,49.74
2022-09-12T11:56:53.674Z,50.04
2022-09-12T11:59:44.263Z,49.88
2022-09-12T12:02:25.418Z,50.60
2022-09-12T12:05:03.589Z,49.50
2022-09-12T12:07:45.719Z,49.71
2022-09-12T12:10:36.121Z,50.16
2022-09-12T12:13:14.015Z,50.82
2022-09-12T12:15:56.203Z,52.95
2022-09-12T12:18:28.108Z,52.17
2022-09-12T12:20:56.430Z,50.79
2022-09-12T12:23:35.292Z,51.53
2022-09-12T12:26:04.553Z,50.36
2022-09-12T12:28:49.546Z,50.85
2022-09-12T12:31:17.238Z,50.82
2022-09-12T12:33:43.900Z,50.02
2022-09-12T12:36:29.496Z,52.21
2022-09-12T12:38:56.083Z,49.38
2022-09-12T12:41:23.573Z,50.38
2022-09-12T12:43:52.414Z,49.24
2022-09-12T12:46:22.577Z,50.53
2022-09-12T12:48:58.213Z,48.63
2022-09-12T12:51:42.905Z,48.91
2022-09-12T12:54:29.643Z,51.61
2022-09-12T12:57:15.936Z,48.74
2022-09-12T12:59:54.817Z,48.98
2022-09-12T13:02:27.171Z,47.77
2022-09-12T13:04:55.370Z,50.07
2022-09-12T13:07:30.904Z,48.15
2022-09-12T13:09:59.460Z,48.27
2022-09-12T13:12:43.543Z,50.80
2022-09-12T13:15:29.606Z,49.42
2022-09-12T13:18:01.729Z,47.51
2022-09-12T13:20:37.741Z,48.84
2022-09-12T13:23:04.443Z,48.24
2022-09-12T13:25:33.861Z,48.41
2022-09-12T13:28:18.451Z,49.83
2022-09-12T13:31:11.778Z,47.68
2022-09-12T13:33:45.230Z,49.79
2022-09-12T13:36:45.925Z,48.69
2022-09-12T13:39:27.020Z,50.78
2022-09-12T13:42:27.361Z,47.93
2022-09-12T13:45:15.595Z,48.17
2022-09-12T13:47:45.181Z,47.55
2022-09-12T13:50:21.287Z,48.09
2022-09-12T13:52:55.016Z,47.19
2022-09-12T13:55:31.419Z,48.13
2022-09-12T13:58:01.557Z,49.64
2022-09-12T14:00:31.704Z,47.73
2022-09-12T14:03:18.141Z,48.35
2022-09-12T14:05:48.650Z,47.77
2022-09-12T14:08:15.345Z,47.88
2022-09-12T14:10:44.938Z,48.27
2022-09-12T14:13:21.137Z,47.88
2022-09-12T14:15:50.005Z,48.19
2022-09-12T14:18:28.657Z,47.70
2022-09-12T14:20:58.325Z,47.99
2022-09-12T14:23:31.125Z,48.32
2022-09-12T14:26:00.034Z,48.30
2022-09-12T14:28:31.147Z,47.49
2022-09-12T14:31:23.724Z,46.80
2022-09-12T14:33:55.915Z,47.56
2022-09-12T14:36:36.316Z,47.82
2022-09-12T14:39:07.305Z,48.39
2022-09-12T14:41:39.502Z,47.83
2022-09-12T14:44:10.530Z,47.85
2022-09-12T14:46:41.860Z,49.51
2022-09-12T14:49:16.217Z,48.22
2022-09-12T14:51:51.674Z,47.67
2022-09-12T14:54:30.294Z,47.35
2022-09-12T14:57:06.608Z,48.79
2022-09-12T14:59:36.221Z,48.00
2022-09-12T15:02:21.973Z,48.19
2022-09-12T15:05:11.443Z,48.30
2022-09-12T15:07:50.326Z,48.54
2022-09-12T15:10:25.339Z,48.60
2022-09-12T15:13:12.134Z,48.01
2022-09-12T15:15:40.238Z,47.96
2022-09-12T15:18:07.201Z,47.17
2022-09-12T15:20:37.500Z,49.85
2022-09-12T15:23:06.015Z,47.93
2022-09-12T15:25:32.471Z,47.79
2022-09-12T15:27:58.992Z,49.42
2022-09-12T15:30:25.469Z,48.33
2022-09-12T15:32:52.034Z,47.50
2022-09-12T15:35:23.023Z,48.64
2022-09-12T15:37:50.138Z,49.81
2022-09-12T15:40:17.053Z,49.15
2022-09-12T15:42:43.823Z,47.76
2022-09-12T15:45:19.794Z,48.46
2022-09-12T15:47:46.568Z,47.29
2022-09-12T15:50:13.505Z,49.70
2022-09-12T15:53:00.425Z,48.13
2022-09-12T15:55:32.218Z,46.86
2022-09-12T15:58:03.592Z,46.56
2022-09-12T16:00:32.997Z,48.85
2022-09-12T16:02:59.541Z,49.31
2022-09-12T16:05:26.950Z,46.67
2022-09-12T16:07:54.641Z,47.09
2022-09-12T16:10:27.536Z,46.48
2022-09-12T16:12:54.616Z,45.98
2022-09-12T16:15:23.728Z,47.23
2022-09-12T16:17:50.975Z,46.23
2022-09-12T16:20:19.206Z,46.76
2022-09-12T16:22:45.827Z,47.45
2022-09-12T16:25:12.371Z,47.85
2022-09-12T16:27:38.891Z,48.59
2022-09-12T16:30:07.200Z,49.07
2022-09-12T16:32:33.778Z,47.26
2022-09-12T16:35:00.322Z,48.31
2022-09-12T16:37:26.847Z,49.07
2022-09-12T16:39:53.539Z,49.09
2022-09-12T16:42:20.219Z,49.44
2022-09-12T16:44:47.140Z,48.76
2022-09-12T16:47:14.894Z,47.71
2022-09-12T16:49:41.352Z,47.30
2022-09-12T16:52:08.214Z,47.88
2022-09-12T16:54:34.822Z,48.70
2022-09-12T16:57:01.338Z,48.42
2022-09-12T16:59:27.842Z,49.64
2022-09-12T17:01:54.462Z,48.91
2022-09-12T17:04:23.587Z,47.99
2022-09-12T17:06:50.469Z,47.89
2022-09-12T17:09:18.611Z,47.90
2022-09-12T17:11:50.256Z,49.66
2022-09-12T17:14:17.137Z,48.96
2022-09-12T17:16:51.446Z,50.09
2022-09-12T17:19:26.380Z,48.14
2022-09-12T17:21:53.167Z,48.39
2022-09-12T17:24:20.752Z,49.85
2022-09-12T17:26:47.262Z,49.33
2022-09-12T17:29:14.735Z,49.87
2022-09-12T17:31:42.168Z,50.71
2022-09-12T17:34:09.723Z,51.87
2022-09-12T17:36:37.480Z,52.17
2022-09-12T17:39:04.495Z,52.45
2022-09-12T17:41:34.365Z,51.33
2022-09-12T17:44:02.971Z,51.96
2022-09-12T17:46:35.686Z,53.57
2022-09-12T17:49:04.682Z,55.53
2022-09-12T17:51:31.948Z,55.26
2022-09-12T17:53:59.118Z,57.74
2022-09-12T17:56:27.904Z,54.91
2022-09-12T17:58:56.658Z,59.60
2022-09-12T18:01:41.615Z,58.98
2022-09-12T18:04:08.447Z,60.84
2022-09-12T18:06:35.319Z,61.10
2022-09-12T18:09:07.995Z,62.34
2022-09-12T18:11:35.740Z,62.91
2022-09-12T18:14:02.828Z,60.47
2022-09-12T18:16:29.468Z,59.12
2022-09-12T18:18:56.560Z,62.55
2022-09-12T18:21:23.074Z,65.74
2022-09-12T18:23:49.578Z,63.00
2022-09-12T18:26:16.149Z,66.26
2022-09-12T18:28:44.194Z,67.85
2022-09-12T18:31:19.424Z,65.42
2022-09-12T18:33:46.378Z,68.90
2022-09-12T18:36:14.281Z,69.03
2022-09-12T18:38:41.622Z,69.10
2022-09-12T18:41:10.830Z,68.98
2022-09-12T18:43:38.015Z,70.10
2022-09-12T18:46:13.561Z,70.73
2022-09-12T18:48:40.348Z,69.81
2022-09-12T18:51:15.836Z,68.89
2022-09-12T18:53:43.029Z,69.86
2022-09-12T18:56:13.938Z,69.61
2022-09-12T18:58:42.702Z,70.10
2022-09-12T19:01:14.876Z,70.50
2022-09-12T19:03:42.183Z,70.83
2022-09-12T19:06:29.764Z,71.57
2022-09-12T19:08:57.534Z,71.73
2022-09-12T19:11:26.126Z,72.44
2022-09-12T19:13:54.103Z,71.94
2022-09-12T19:16:23.395Z,73.47
2022-09-12T19:18:52.357Z,73.95
2022-09-12T19:21:22.409Z,74.58
2022-09-12T19:23:49.685Z,74.21
2022-09-12T19:26:18.005Z,74.51
2022-09-12T19:28:45.492Z,74.93
2022-09-12T19:31:14.514Z,75.36
2022-09-12T19:33:42.734Z,75.55
2022-09-12T19:36:41.328Z,75.81
2022-09-12T19:39:05.486Z,74.96
2022-09-12T19:41:32.745Z,76.18
2022-09-12T19:43:59.457Z,75.72
2022-09-12T19:46:26.961Z,75.38
2022-09-12T19:48:54.155Z,75.62
2022-09-12T19:51:21.858Z,75.77
2022-09-12T19:53:50.268Z,76.12
2022-09-12T19:56:17.100Z,76.55
2022-09-12T19:58:46.270Z,76.41
2022-09-12T20:01:24.782Z,76.89
2022-09-12T20:03:54.710Z,75.48
2022-09-12T20:06:21.552Z,76.44
2022-09-12T20:08:48.301Z,76.78
2022-09-12T20:11:18.325Z,77.21
2022-09-12T20:13:46.139Z,76.87
2022-09-12T20:16:21.657Z,77.32
2022-09-12T20:18:57.081Z,74.59
2022-09-12T20:21:25.683Z,75.19
2022-09-12T20:23:52.403Z,77.28
2022-09-12T20:26:20.303Z,76.33
2022-09-12T20:28:47.029Z,77.32
2022-09-12T20:31:16.007Z,77.46
2022-09-12T20:33:43.323Z,78.11
2022-09-12T20:36:13.905Z,78.78
2022-09-12T20:38:41.244Z,79.28
2022-09-12T20:41:10.018Z,77.35
2022-09-12T20:43:38.615Z,78.29
2022-09-12T20:46:08.055Z,79.73
2022-09-12T20:48:34.667Z,79.64
2022-09-12T20:51:01.760Z,80.09
2022-09-12T20:53:31.706Z,80.73
2022-09-12T20:56:01.433Z,80.12
2022-09-12T20:58:28.022Z,79.63
2022-09-12T21:00:54.614Z,79.54
2022-09-12T21:03:21.201Z,80.14
2022-09-12T21:05:47.835Z,79.89
2022-09-12T21:08:14.842Z,80.40
2022-09-12T21:10:42.961Z,79.88
2022-09-12T21:13:13.182Z,80.87
2022-09-12T21:15:40.824Z,80.53
2022-09-12T21:18:07.691Z,80.86
2022-09-12T21:20:34.799Z,79.84
2022-09-12T21:23:01.929Z,79.49
2022-09-12T21:25:29.501Z,79.42
2022-09-12T21:27:56.018Z,81.41
2022-09-12T21:30:22.712Z,80.80
2022-09-12T21:32:49.276Z,81.62
2022-09-12T21:35:16.270Z,81.78
2022-09-12T21:37:42.800Z,81.94
2022-09-12T21:40:09.655Z,81.40
2022-09-12T21:42:36.215Z,82.30
2022-09-12T21:45:02.763Z,81.72
2022-09-12T21:47:29.221Z,79.69
2022-09-12T21:49:55.790Z,82.27
2022-09-12T21:52:22.246Z,79.06
2022-09-12T21:54:48.758Z,80.63
2022-09-12T21:57:15.681Z,81.36
2022-09-12T21:59:42.180Z,78.39
2022-09-12T22:02:08.773Z,81.50
2022-09-12T22:04:35.305Z,79.87
2022-09-12T22:07:02.143Z,80.03
2022-09-12T22:09:28.721Z,80.55
2022-09-12T22:11:55.647Z,82.40
2022-09-12T22:14:22.242Z,82.58
2022-09-12T22:16:49.510Z,82.74
2022-09-12T22:19:16.242Z,83.10
2022-09-12T22:22:02.779Z,80.65
2022-09-12T22:24:29.607Z,81.97
2022-09-12T22:26:59.035Z,82.01
2022-09-12T22:29:26.455Z,82.71
2022-09-12T22:31:53.614Z,82.95
2022-09-12T22:34:20.283Z,83.64
2022-09-12T22:36:48.471Z,82.85
2022-09-12T22:39:15.104Z,82.45
2022-09-12T22:41:41.739Z,81.05
2022-09-12T22:44:10.496Z,82.26
2022-09-12T22:46:38.039Z,82.07
2022-09-12T22:49:06.316Z,79.92
2022-09-12T22:51:33.476Z,80.27
2022-09-12T22:54:00.113Z,80.49
2022-09-12T22:56:26.715Z,80.86
2022-09-12T22:58:53.191Z,82.96
2022-09-12T23:01:20.232Z,82.64
2022-09-12T23:03:46.754Z,81.77
2022-09-12T23:06:13.369Z,82.80
2022-09-12T23:08:40.099Z,82.35
2022-09-12T23:11:12.821Z,82.75
2022-09-12T23:13:43.036Z,83.43
2022-09-12T23:16:13.759Z,83.07
2022-09-12T23:18:40.221Z,84.88
2022-09-12T23:21:08.957Z,84.14
2022-09-12T23:23:36.181Z,85.54
2022-09-12T23:26:07.508Z,85.30
2022-09-12T23:28:35.441Z,85.45
2022-09-12T23:31:03.035Z,84.28
2022-09-12T23:33:31.005Z,84.78
2022-09-12T23:35:59.282Z,85.41
2022-09-12T23:38:25.822Z,85.12
2022-09-12T23:40:55.298Z,86.00
2022-09-12T23:43:21.905Z,85.69
2022-09-12T23:45:48.961Z,85.71
2022-09-12T23:48:15.777Z,85.86
2022-09-12T23:50:46.720Z,86.12
2022-09-12T23:53:14.273Z,86.26
2022-09-12T23:55:41.262Z,85.12
2022-09-12T23:58:08.042Z,85.66
